createdAt,value
2023-01-12T00:01:55.913Z,95579.81
2023-01-12T00:04:23.527Z,95528.72
2023-01-12T00:06:51.091Z,95590.72
2023-01-12T00:09:18.553Z,95600.06
2023-01-12T00:11:46.163Z,95584.22
2023-01-12T00:14:13.866Z,95582.31
2023-01-12T00:16:41.792Z,95555.75
2023-01-12T00:19:12.395Z,95592.97
2023-01-12T00:21:58.183Z,95592.75
2023-01-12T00:24:27.447Z,95600.25
2023-01-12T00:26:56.048Z,95602.41
2023-01-12T00:29:24.433Z,95609.69
2023-01-12T00:31:53.011Z,95591.72
2023-01-12T00:34:21.857Z,95616.00
2023-01-12T00:36:49.590Z,95593.41
2023-01-12T00:39:17.979Z,95602.94
2023-01-12T00:42:03.809Z,95581.19
2023-01-12T00:44:49.100Z,95600.06
2023-01-12T00:47:17.298Z,95601.38
2023-01-12T00:49:46.820Z,95600.06
2023-01-12T00:52:29.532Z,95599.25
2023-01-12T00:54:58.588Z,95588.94
2023-01-12T00:57:26.187Z,95598.22
2023-01-12T00:59:54.970Z,95586.09
2023-01-12T01:02:22.815Z,95598.78
2023-01-12T01:04:51.940Z,95573.47
2023-01-12T01:07:21.390Z,95588.78
2023-01-12T01:09:48.893Z,95603.06
2023-01-12T01:12:16.519Z,95592.13
2023-01-12T01:14:44.178Z,95593.16
2023-01-12T01:17:11.701Z,95550.06
2023-01-12T01:19:39.244Z,95541.75
2023-01-12T01:22:08.085Z,95566.34
2023-01-12T01:24:35.514Z,95602.59
2023-01-12T01:27:02.993Z,95572.84
2023-01-12T01:29:30.506Z,95589.66
2023-01-12T01:31:58.336Z,95584.47
2023-01-12T01:34:25.796Z,95564.47
2023-01-12T01:36:53.251Z,95593.25
2023-01-12T01:39:22.075Z,95565.22
2023-01-12T01:41:49.633Z,95587.06
2023-01-12T01:44:49.847Z,95575.03
2023-01-12T01:47:27.109Z,95582.25
2023-01-12T01:49:57.474Z,95582.34
2023-01-12T01:52:28.375Z,95577.50
2023-01-12T01:55:00.546Z,95588.06
2023-01-12T01:57:34.481Z,95589.41
2023-01-12T02:00:03.962Z,95571.94
2023-01-12T02:02:31.476Z,95573.19
2023-01-12T02:04:59.075Z,95570.34
2023-01-12T02:07:26.604Z,95564.88
2023-01-12T02:09:54.022Z,95561.81
2023-01-12T02:12:42.438Z,95555.84
2023-01-12T02:15:28.244Z,95558.31
2023-01-12T02:18:10.544Z,95557.19
2023-01-12T02:20:48.385Z,95566.75
2023-01-12T02:24:02.090Z,95563.16
2023-01-12T02:26:49.748Z,95544.47
2023-01-12T02:29:56.296Z,95535.03
2023-01-12T02:32:30.995Z,95539.75
2023-01-12T02:35:09.249Z,95539.28
2023-01-12T02:37:44.611Z,95542.13
2023-01-12T02:40:22.199Z,95527.91
2023-01-12T02:42:55.888Z,95525.31
2023-01-12T02:45:33.425Z,95515.75
2023-01-12T02:48:08.972Z,95512.16
2023-01-12T02:50:41.182Z,95522.28
2023-01-12T02:53:13.296Z,95513.47
2023-01-12T02:55:42.461Z,95495.06
2023-01-12T02:58:13.188Z,95506.44
2023-01-12T03:00:43.835Z,95491.34
2023-01-12T03:03:13.322Z,95488.75
2023-01-12T03:05:41.554Z,95486.94
2023-01-12T03:08:13.506Z,95484.06
2023-01-12T03:10:51.658Z,95481.38
2023-01-12T03:13:21.199Z,95492.84
2023-01-12T03:15:55.133Z,95479.25
2023-01-12T03:18:31.370Z,95487.19
2023-01-12T03:21:06.163Z,95473.22
2023-01-12T03:23:41.098Z,95462.63
2023-01-12T03:26:11.281Z,95458.72
2023-01-12T03:28:43.738Z,95478.06
2023-01-12T03:31:14.004Z,95476.13
2023-01-12T03:33:45.260Z,95464.91
2023-01-12T03:36:19.844Z,95454.84
2023-01-12T03:39:00.089Z,95439.78
2023-01-12T03:41:35.583Z,95439.56
2023-01-12T03:44:06.653Z,95460.19
2023-01-12T03:46:38.286Z,95442.31
2023-01-12T03:49:12.227Z,95436.66
2023-01-12T03:51:43.837Z,95434.56
2023-01-12T03:54:14.231Z,95446.31
2023-01-12T03:56:44.630Z,95436.72
2023-01-12T03:59:12.900Z,95420.03
2023-01-12T04:01:41.782Z,95426.94
2023-01-12T04:04:10.668Z,95435.25
2023-01-12T04:06:38.149Z,95431.00
2023-01-12T04:09:05.609Z,95420.34
2023-01-12T04:11:50.824Z,95417.75
2023-01-12T04:14:18.403Z,95419.88
2023-01-12T04:16:46.711Z,95428.97
2023-01-12T04:19:15.499Z,95417.50
2023-01-12T04:22:00.827Z,95412.88
2023-01-12T04:24:28.305Z,95395.78
2023-01-12T04:26:55.765Z,95385.66
2023-01-12T04:29:23.187Z,95387.97
2023-01-12T04:31:50.679Z,95362.53
2023-01-12T04:34:19.594Z,95367.91
2023-01-12T04:36:47.072Z,95362.19
2023-01-12T04:39:14.512Z,95343.69
2023-01-12T04:41:41.956Z,95346.72
2023-01-12T04:44:09.536Z,95346.72
2023-01-12T04:46:37.010Z,95340.94
2023-01-12T04:49:04.482Z,95300.81
2023-01-12T04:51:33.289Z,95307.56
2023-01-12T04:54:00.769Z,95337.19
2023-01-12T04:56:28.316Z,95298.69
2023-01-12T04:58:59.402Z,95298.59
2023-01-12T05:01:28.401Z,95320.75
2023-01-12T05:03:58.033Z,95277.66
2023-01-12T05:06:25.544Z,95290.50
2023-01-12T05:09:12.232Z,95288.69
2023-01-12T05:11:40.344Z,95288.78
2023-01-12T05:14:07.828Z,95299.94
2023-01-12T05:16:35.389Z,95310.13
2023-01-12T05:19:05.699Z,95286.88
2023-01-12T05:21:33.691Z,95304.75
2023-01-12T05:24:02.507Z,95314.56
2023-01-12T05:26:29.944Z,95308.16
2023-01-12T05:28:57.378Z,95308.91
2023-01-12T05:31:24.882Z,95301.41
2023-01-12T05:33:52.336Z,95314.91
2023-01-12T05:36:20.431Z,95297.78
2023-01-12T05:38:47.863Z,95300.59
2023-01-12T05:41:16.665Z,95278.03
2023-01-12T05:43:52.338Z,95283.03
2023-01-12T05:46:21.734Z,95247.72
2023-01-12T05:48:49.628Z,95262.78
2023-01-12T05:51:17.934Z,95255.75
2023-01-12T05:53:45.471Z,95246.88
2023-01-12T05:56:19.369Z,95241.72
2023-01-12T05:58:50.816Z,95233.19
2023-01-12T06:01:18.343Z,95227.19
2023-01-12T06:03:49.662Z,95220.72
2023-01-12T06:06:17.317Z,95223.78
2023-01-12T06:08:44.789Z,95236.53
2023-01-12T06:11:32.265Z,95239.38
2023-01-12T06:14:00.854Z,95220.44
2023-01-12T06:16:29.211Z,95222.50
2023-01-12T06:18:56.735Z,95208.53
2023-01-12T06:21:24.843Z,95215.34
2023-01-12T06:23:52.609Z,95213.22
2023-01-12T06:26:20.247Z,95213.50
2023-01-12T06:28:47.695Z,95201.31
2023-01-12T06:31:16.583Z,95206.22
2023-01-12T06:33:44.529Z,95214.00
2023-01-12T06:36:14.812Z,95226.44
2023-01-12T06:38:43.210Z,95222.38
2023-01-12T06:41:33.200Z,95207.94
2023-01-12T06:44:00.905Z,95225.34
2023-01-12T06:46:30.115Z,95226.13
2023-01-12T06:48:57.962Z,95216.56
2023-01-12T06:51:26.014Z,95219.16
2023-01-12T06:53:53.653Z,95208.31
2023-01-12T06:56:21.112Z,95191.88
2023-01-12T06:58:48.566Z,95214.22
2023-01-12T07:01:16.904Z,95186.63
2023-01-12T07:03:45.900Z,95203.00
2023-01-12T07:06:14.329Z,95213.66
2023-01-12T07:08:42.719Z,95197.00
2023-01-12T07:11:12.446Z,95211.69
2023-01-12T07:13:39.967Z,95206.13
2023-01-12T07:16:08.313Z,95202.25
2023-01-12T07:18:35.791Z,95225.03
2023-01-12T07:21:07.305Z,95213.09
2023-01-12T07:23:34.878Z,95226.59
2023-01-12T07:26:02.501Z,95212.22
2023-01-12T07:28:31.245Z,95200.53
2023-01-12T07:31:01.292Z,95223.31
2023-01-12T07:33:28.823Z,95240.41
2023-01-12T07:36:01.547Z,95232.63
2023-01-12T07:38:31.927Z,95244.56
2023-01-12T07:40:59.977Z,95241.91
2023-01-12T07:43:27.786Z,95234.69
2023-01-12T07:45:57.052Z,95212.69
2023-01-12T07:48:24.903Z,95216.34
2023-01-12T07:50:52.717Z,95226.56
2023-01-12T07:53:20.431Z,95232.78
2023-01-12T07:55:49.282Z,95186.63
2023-01-12T07:58:16.709Z,95236.19
2023-01-12T08:00:44.206Z,95216.97
2023-01-12T08:03:14.865Z,95229.69
2023-01-12T08:05:42.472Z,95244.16
2023-01-12T08:08:10.070Z,95219.56
2023-01-12T08:10:37.791Z,95223.44
2023-01-12T08:13:06.542Z,95240.88
2023-01-12T08:15:37.990Z,95240.88
2023-01-12T08:18:08.883Z,95245.31
2023-01-12T08:20:37.656Z,95249.47
2023-01-12T08:23:10.519Z,95233.44
2023-01-12T08:25:44.387Z,95237.59
2023-01-12T08:28:18.047Z,95245.44
2023-01-12T08:30:47.853Z,95241.59
2023-01-12T08:33:16.315Z,95236.13
2023-01-12T08:35:46.139Z,95244.22
2023-01-12T08:38:14.093Z,95242.94
2023-01-12T08:40:55.522Z,95226.13
2023-01-12T08:43:38.259Z,95236.78
2023-01-12T08:46:08.619Z,95233.66
2023-01-12T08:48:36.660Z,95224.28
2023-01-12T08:51:04.323Z,95220.97
2023-01-12T08:53:32.102Z,95230.59
2023-01-12T08:55:59.567Z,95235.56
2023-01-12T08:58:28.539Z,95245.44
2023-01-12T09:00:56.108Z,95245.44
2023-01-12T09:03:23.724Z,95225.38
2023-01-12T09:05:51.177Z,95240.63
2023-01-12T09:08:18.607Z,95253.09
2023-01-12T09:10:46.061Z,95243.22
2023-01-12T09:13:15.653Z,95249.97
2023-01-12T09:15:56.494Z,95238.34
2023-01-12T09:18:31.861Z,95260.13
2023-01-12T09:21:03.855Z,95225.41
2023-01-12T09:23:31.585Z,95262.50
2023-01-12T09:26:03.596Z,95263.00
2023-01-12T09:28:31.501Z,95270.53
2023-01-12T09:31:03.339Z,95263.00
2023-01-12T09:33:32.033Z,95272.16
2023-01-12T09:36:03.976Z,95271.41
2023-01-12T09:38:31.656Z,95259.44
2023-01-12T09:41:02.975Z,95290.06
2023-01-12T09:43:48.312Z,95283.06
2023-01-12T09:46:46.144Z,95286.97
2023-01-12T09:49:14.742Z,95238.16
2023-01-12T09:51:51.168Z,95279.44
2023-01-12T09:54:19.603Z,95258.69
2023-01-12T09:56:52.677Z,95287.28
2023-01-12T09:59:32.615Z,95299.44
2023-01-12T10:02:01.636Z,95263.66
2023-01-12T10:04:29.389Z,95292.25
2023-01-12T10:06:57.242Z,95290.69
2023-01-12T10:09:26.545Z,95289.41
2023-01-12T10:12:05.073Z,95297.41
2023-01-12T10:14:57.930Z,95295.63
2023-01-12T10:17:42.311Z,95282.66
2023-01-12T10:20:27.889Z,95291.22
2023-01-12T10:23:02.014Z,95284.50
2023-01-12T10:25:38.243Z,95283.44
2023-01-12T10:28:15.255Z,95281.91
2023-01-12T10:30:42.763Z,95285.53
2023-01-12T10:33:14.870Z,95269.16
2023-01-12T10:35:52.228Z,95297.22
2023-01-12T10:38:23.900Z,95270.75
2023-01-12T10:41:13.905Z,95283.25
2023-01-12T10:43:43.157Z,95297.06
2023-01-12T10:46:13.604Z,95297.28
2023-01-12T10:48:44.341Z,95294.97
2023-01-12T10:51:24.614Z,95291.34
2023-01-12T10:53:55.823Z,95309.25
2023-01-12T10:56:29.611Z,95294.16
2023-01-12T10:59:00.407Z,95295.19
2023-01-12T11:01:43.873Z,95257.13
2023-01-12T11:04:16.888Z,95295.50
2023-01-12T11:06:46.761Z,95294.47
2023-01-12T11:09:25.622Z,95278.06
2023-01-12T11:11:57.758Z,95280.69
2023-01-12T11:14:29.677Z,95260.44
2023-01-12T11:17:12.096Z,95283.84
2023-01-12T11:19:44.177Z,95275.28
2023-01-12T11:22:17.733Z,95287.03
2023-01-12T11:24:52.841Z,95269.81
2023-01-12T11:27:27.945Z,95268.25
2023-01-12T11:29:59.846Z,95275.59
2023-01-12T11:32:37.507Z,95273.81
2023-01-12T11:35:20.302Z,95284.69
2023-01-12T11:37:48.523Z,95284.69
2023-01-12T11:40:28.352Z,95264.44
2023-01-12T11:43:18.503Z,95285.78
2023-01-12T11:45:52.846Z,95253.81
2023-01-12T11:48:26.945Z,95264.50
2023-01-12T11:50:58.037Z,95280.63
2023-01-12T11:53:26.615Z,95225.03
2023-01-12T11:56:09.312Z,95246.31
2023-01-12T11:58:49.406Z,95268.44
2023-01-12T12:01:25.403Z,95254.66
2023-01-12T12:03:59.345Z,95243.72
2023-01-12T12:06:40.120Z,95255.69
2023-01-12T12:09:28.098Z,95269.22
2023-01-12T12:12:00.300Z,95268.16
2023-01-12T12:14:46.917Z,95265.28
2023-01-12T12:17:20.476Z,95245.72
2023-01-12T12:20:00.640Z,95258.28
2023-01-12T12:22:42.195Z,95255.69
2023-01-12T12:25:24.900Z,95259.28
2023-01-12T12:28:08.266Z,95268.13
2023-01-12T12:30:55.689Z,95255.16
2023-01-12T12:33:32.329Z,95255.16
2023-01-12T12:36:13.720Z,95258.28
2023-01-12T12:39:11.024Z,95257.22
2023-01-12T12:42:01.413Z,95245.78
2023-01-12T12:44:59.527Z,95244.19
2023-01-12T12:47:42.164Z,95239.22
2023-01-12T12:50:18.188Z,95259.78
2023-01-12T12:52:48.955Z,95238.97
2023-01-12T12:55:17.934Z,95243.13
2023-01-12T12:57:59.485Z,95247.03
2023-01-12T13:00:36.566Z,95244.19
2023-01-12T13:03:04.268Z,95232.47
2023-01-12T13:05:43.928Z,95244.97
2023-01-12T13:08:21.200Z,95238.72
2023-01-12T13:10:52.750Z,95248.56
2023-01-12T13:13:29.969Z,95216.91
2023-01-12T13:16:45.946Z,95224.72
2023-01-12T13:19:32.423Z,95219.28
2023-01-12T13:22:17.709Z,95207.84
2023-01-12T13:24:46.078Z,95210.13
2023-01-12T13:27:54.017Z,95227.28
2023-01-12T13:30:39.206Z,95228.09
2023-01-12T13:33:28.301Z,95242.09
2023-01-12T13:36:10.142Z,95228.84
2023-01-12T13:38:50.184Z,95223.44
2023-01-12T13:41:40.991Z,95212.50
2023-01-12T13:44:13.415Z,95222.13
2023-01-12T13:46:45.029Z,95222.66
2023-01-12T13:49:34.549Z,95214.88
2023-01-12T13:52:04.908Z,95208.94
2023-01-12T13:54:33.433Z,95219.31
2023-01-12T13:57:04.694Z,95204.25
2023-01-12T13:59:34.888Z,95205.03
2023-01-12T14:02:03.339Z,95211.53
2023-01-12T14:04:56.829Z,95220.13
2023-01-12T14:07:49.388Z,95208.16
2023-01-12T14:10:33.400Z,95214.16
2023-01-12T14:13:14.036Z,95206.06
2023-01-12T14:16:02.105Z,95218.31
2023-01-12T14:18:42.059Z,95219.06
2023-01-12T14:21:22.267Z,95230.81
2023-01-12T14:23:49.794Z,95206.63
2023-01-12T14:26:22.717Z,95212.63
2023-01-12T14:28:51.732Z,95221.69
2023-01-12T14:31:27.145Z,95222.72
2023-01-12T14:33:57.124Z,95193.56
2023-01-12T14:36:28.623Z,95221.94
2023-01-12T14:38:58.464Z,95214.13
2023-01-12T14:41:45.594Z,95217.75
2023-01-12T14:44:36.537Z,95221.88
2023-01-12T14:47:05.471Z,95219.53
2023-01-12T14:49:34.577Z,95213.84
2023-01-12T14:52:22.972Z,95210.50
2023-01-12T14:54:52.051Z,95213.34
2023-01-12T14:57:22.981Z,95197.00
2023-01-12T14:59:50.786Z,95209.19
2023-01-12T15:02:34.019Z,95206.34
2023-01-12T15:05:04.141Z,95210.72
2023-01-12T15:07:34.783Z,95211.72
2023-01-12T15:10:04.608Z,95194.28
2023-01-12T15:12:53.806Z,95185.94
2023-01-12T15:15:23.809Z,95196.38
2023-01-12T15:18:12.030Z,95202.09
2023-01-12T15:20:59.602Z,95201.06
2023-01-12T15:23:47.835Z,95186.25
2023-01-12T15:26:15.316Z,95194.00
2023-01-12T15:28:42.832Z,95186.69
2023-01-12T15:31:18.098Z,95197.38
2023-01-12T15:33:47.012Z,95184.13
2023-01-12T15:36:15.034Z,95181.53
2023-01-12T15:38:42.480Z,95183.09
2023-01-12T15:41:16.743Z,95185.94
2023-01-12T15:43:44.237Z,95174.00
2023-01-12T15:46:18.978Z,95168.28
2023-01-12T15:48:47.793Z,95179.72
2023-01-12T15:51:16.825Z,95171.38
2023-01-12T15:53:44.266Z,95167.78
2023-01-12T15:56:15.175Z,95168.31
2023-01-12T15:58:42.740Z,95148.59
2023-01-12T16:01:15.461Z,95154.31
2023-01-12T16:04:07.229Z,95138.19
2023-01-12T16:06:33.744Z,95163.38
2023-01-12T16:09:01.847Z,95117.63
2023-01-12T16:11:29.321Z,95144.66
2023-01-12T16:13:57.620Z,95155.31
2023-01-12T16:16:26.434Z,95142.34
2023-01-12T16:18:58.555Z,95148.81
2023-01-12T16:21:26.992Z,95131.66
2023-01-12T16:23:57.727Z,95133.22
2023-01-12T16:26:25.561Z,95105.88
2023-01-12T16:28:53.057Z,95129.84
2023-01-12T16:31:20.852Z,95134.22
2023-01-12T16:33:48.533Z,95129.31
2023-01-12T16:36:16.384Z,95124.91
2023-01-12T16:38:43.834Z,95132.44
2023-01-12T16:41:14.828Z,95123.88
2023-01-12T16:43:42.426Z,95140.47
2023-01-12T16:46:12.212Z,95135.81
2023-01-12T16:48:41.722Z,95144.38
2023-01-12T16:51:11.889Z,95145.41
2023-01-12T16:53:40.584Z,95140.75
2023-01-12T16:56:09.122Z,95128.78
2023-01-12T16:58:38.028Z,95135.56
2023-01-12T17:01:11.767Z,95136.59
2023-01-12T17:03:41.436Z,95130.06
2023-01-12T17:06:10.717Z,95135.28
2023-01-12T17:08:38.926Z,95132.69
2023-01-12T17:11:08.176Z,95140.25
2023-01-12T17:13:35.874Z,95123.09
2023-01-12T17:16:08.346Z,95142.84
2023-01-12T17:18:37.266Z,95138.19
2023-01-12T17:21:06.777Z,95090.31
2023-01-12T17:23:34.517Z,95116.59
2023-01-12T17:26:02.778Z,95122.09
2023-01-12T17:28:30.399Z,95119.00
2023-01-12T17:30:58.079Z,95129.38
2023-01-12T17:33:26.953Z,95123.16
2023-01-12T17:35:54.364Z,95125.47
2023-01-12T17:38:21.863Z,95107.81
2023-01-12T17:40:49.819Z,95123.94
2023-01-12T17:43:16.862Z,95112.50
2023-01-12T17:45:44.488Z,95096.88
2023-01-12T17:48:13.122Z,95093.25
2023-01-12T17:50:41.990Z,95100.53
2023-01-12T17:53:10.022Z,95110.16
2023-01-12T17:55:47.348Z,95114.31
2023-01-12T17:58:17.331Z,95122.59
2023-01-12T18:00:44.840Z,95119.50
2023-01-12T18:03:12.498Z,95105.72
2023-01-12T18:05:42.456Z,95104.44
2023-01-12T18:08:11.508Z,95104.16
2023-01-12T18:10:38.960Z,95107.78
2023-01-12T18:13:06.376Z,95123.13
2023-01-12T18:15:33.858Z,95111.94
2023-01-12T18:18:01.344Z,95080.53
2023-01-12T18:20:28.796Z,95098.44
2023-01-12T18:22:56.244Z,95106.78
2023-01-12T18:25:25.122Z,95079.75
2023-01-12T18:27:52.765Z,95090.94
2023-01-12T18:30:20.368Z,95063.38
2023-01-12T18:32:50.023Z,95093.53
2023-01-12T18:35:17.669Z,95080.22
2023-01-12T18:37:47.136Z,95074.81
2023-01-12T18:40:15.940Z,95078.16
2023-01-12T18:42:49.901Z,95083.88
2023-01-12T18:45:18.416Z,95062.38
2023-01-12T18:48:04.246Z,95095.16
2023-01-12T18:50:49.464Z,95086.84
2023-01-12T18:53:23.961Z,95099.81
2023-01-12T18:55:54.643Z,95088.63
2023-01-12T18:58:25.050Z,95089.94
2023-01-12T19:00:52.902Z,95087.91
2023-01-12T19:03:20.659Z,95107.91
2023-01-12T19:05:58.792Z,95105.31
2023-01-12T19:08:47.206Z,95048.88
2023-01-12T19:11:16.572Z,95105.31
2023-01-12T19:14:03.006Z,95087.09
2023-01-12T19:16:48.313Z,95099.34
2023-01-12T19:19:21.657Z,95092.84
2023-01-12T19:22:06.616Z,95099.09
2023-01-12T19:24:51.937Z,95090.00
2023-01-12T19:27:37.178Z,95095.19
2023-01-12T19:30:07.529Z,95095.69
2023-01-12T19:32:35.213Z,95101.16
2023-01-12T19:35:10.861Z,95092.56
2023-01-12T19:37:39.300Z,95065.50
2023-01-12T19:40:15.924Z,95094.13
2023-01-12T19:43:01.049Z,95088.91
2023-01-12T19:45:30.015Z,95085.28
2023-01-12T19:47:57.634Z,95051.41
2023-01-12T19:50:25.213Z,95082.38
2023-01-12T19:52:52.842Z,95065.44
2023-01-12T19:55:20.608Z,95083.66
2023-01-12T19:57:48.321Z,95064.94
2023-01-12T20:00:17.496Z,95067.00
2023-01-12T20:02:46.720Z,95060.47
2023-01-12T20:05:21.808Z,95048.28
2023-01-12T20:07:50.031Z,95038.47
2023-01-12T20:10:17.640Z,95037.16
2023-01-12T20:12:45.202Z,95042.34
2023-01-12T20:15:13.377Z,95032.47
2023-01-12T20:17:40.923Z,95040.78
2023-01-12T20:20:12.541Z,95035.06
2023-01-12T20:22:42.671Z,95024.13
2023-01-12T20:25:10.724Z,95046.78
2023-01-12T20:27:40.061Z,95003.88
2023-01-12T20:30:15.147Z,94995.78
2023-01-12T20:32:45.589Z,95028.84
2023-01-12T20:35:17.607Z,95020.81
2023-01-12T20:37:45.583Z,95000.78
2023-01-12T20:40:13.970Z,95014.56
2023-01-12T20:42:43.573Z,95020.53
2023-01-12T20:45:13.487Z,95010.41
2023-01-12T20:47:41.930Z,95000.25
2023-01-12T20:50:11.756Z,94987.00
2023-01-12T20:52:41.043Z,95019.00
2023-01-12T20:55:09.093Z,94998.72
2023-01-12T20:57:38.635Z,95002.66
2023-01-12T21:00:07.986Z,95022.63
2023-01-12T21:02:36.464Z,95040.03
2023-01-12T21:05:06.394Z,95002.84
2023-01-12T21:07:33.937Z,95029.41
2023-01-12T21:10:02.801Z,95019.28
2023-01-12T21:12:30.295Z,95012.53
2023-01-12T21:14:57.822Z,95020.31
2023-01-12T21:17:25.343Z,95027.31
2023-01-12T21:19:52.923Z,94959.75
2023-01-12T21:22:20.977Z,94974.81
2023-01-12T21:24:48.952Z,95021.88
2023-01-12T21:27:18.090Z,94970.16
2023-01-12T21:29:45.804Z,95009.91
2023-01-12T21:32:13.692Z,95008.09
2023-01-12T21:34:41.184Z,95013.03
2023-01-12T21:37:08.640Z,95022.13
2023-01-12T21:39:36.228Z,95006.53
2023-01-12T21:42:21.204Z,94996.94
2023-01-12T21:44:50.008Z,94993.84
2023-01-12T21:47:17.438Z,94999.03
2023-01-12T21:49:44.865Z,94985.75
2023-01-12T21:52:12.531Z,94984.47
2023-01-12T21:54:39.973Z,94982.13
2023-01-12T21:57:07.610Z,94978.25
2023-01-12T21:59:35.149Z,94992.25
2023-01-12T22:02:04.092Z,94953.81
2023-01-12T22:04:32.499Z,94920.84
2023-01-12T22:06:59.938Z,94972.78
2023-01-12T22:09:29.468Z,94959.53
2023-01-12T22:11:56.915Z,94964.75
2023-01-12T22:14:24.439Z,94942.91
2023-01-12T22:16:52.032Z,94971.22
2023-01-12T22:19:20.913Z,94985.25
2023-01-12T22:21:48.378Z,94974.88
2023-01-12T22:24:15.858Z,94977.47
2023-01-12T22:26:43.318Z,94978.78
2023-01-12T22:29:10.801Z,94985.28
2023-01-12T22:31:38.359Z,94987.34
2023-01-12T22:34:08.060Z,94973.06
2023-01-12T22:36:42.653Z,94972.03
2023-01-12T22:39:11.679Z,94948.09
2023-01-12T22:41:40.428Z,94978.00
2023-01-12T22:44:07.928Z,94978.53
2023-01-12T22:46:36.764Z,94979.31
2023-01-12T22:49:04.256Z,94979.03
2023-01-12T22:51:31.767Z,94975.94
2023-01-12T22:54:00.683Z,94985.56
2023-01-12T22:56:28.622Z,94991.53
2023-01-12T22:58:56.983Z,94989.44
2023-01-12T23:01:26.289Z,94992.31
2023-01-12T23:03:55.331Z,94983.19
2023-01-12T23:06:24.121Z,94957.50
2023-01-12T23:08:52.441Z,94957.47
2023-01-12T23:11:24.065Z,94981.09
2023-01-12T23:13:52.073Z,94989.19
2023-01-12T23:16:20.565Z,94967.84
2023-01-12T23:18:50.368Z,94993.34
2023-01-12T23:21:20.292Z,94986.81
2023-01-12T23:23:50.301Z,94989.44
2023-01-12T23:26:20.906Z,94956.13
2023-01-12T23:28:52.759Z,94986.28
2023-01-12T23:31:22.652Z,95001.66
2023-01-12T23:33:51.241Z,94963.44
2023-01-12T23:36:20.708Z,94983.72
2023-01-12T23:38:48.542Z,94981.13
2023-01-12T23:41:18.221Z,94974.63
2023-01-12T23:43:46.876Z,94947.59
2023-01-12T23:46:20.278Z,94933.56
2023-01-12T23:48:48.437Z,94940.56
2023-01-12T23:51:16.575Z,94974.09
2023-01-12T23:53:45.278Z,94966.06
2023-01-12T23:56:15.364Z,94966.06
2023-01-12T23:58:43.605Z,94965.53
